Polfoss — V2PN7 — position and weather

sailwx.info

Track history (hours):
 
Tides and Currents Weather Stations Pressure Air Temp Water Temp Dewpoint Dewpoint Depression Visibility Wind Speed Wind Dir Waves Ship Positions

Polfoss

Last reported at 2016-Aug-27 21:33 UTC. Time now 2016-Aug-27 22:20 UTC.
Position N 58°38' E 005°25'.

Length 82 m; draft 6.3 m.

Type: Cargo ship. MMSI: 305081000.

Date/timePositionNaut miles runAvg speedWind from/ knotsBaromVisibWave heightAir tempDewpointWater temp
2016-Aug-27 21:33N 58°38' E 005°25'1614.8
2016-Aug-27 20:30N 58°22' E 005°26'23514.3
2016-Aug-27 04:06N 54°27' E 005°12'814.2
2016-Aug-27 03:32N 54°19' E 005°10'1414.2
2016-Aug-27 02:33N 54°06' E 005°07'1414.4
2016-Aug-27 01:33N 53°52' E 004°60'1514.6
2016-Aug-27 00:34N 53°38' E 004°51'1514.7
2016-Aug-26 23:33N 53°24' E 004°43'1615.7
2016-Aug-26 22:33N 53°10' E 004°33'1615.8
2016-Aug-26 21:33N 52°54' E 004°29'1515.4
2016-Aug-26 20:33N 52°39' E 004°29'1111.4
2016-Aug-26 19:34N 52°28' E 004°35'3 2.7
2016-Aug-26 18:33N 52°28' E 004°40'0 0.0
2016-Aug-26 17:33N 52°28' E 004°40'0 0.0
2016-Aug-26 16:29N 52°28' E 004°40'0 0.0
2016-Aug-26 15:31N 52°28' E 004°40'0 0.0
2016-Aug-26 14:31N 52°28' E 004°40'0 0.0
2016-Aug-26 13:33N 52°28' E 004°40'0 0.0
2016-Aug-26 12:32N 52°28' E 004°40'0 0.0
2016-Aug-26 11:32N 52°28' E 004°40'0 0.0
2016-Aug-26 10:31N 52°28' E 004°40'0 0.0
2016-Aug-26 09:28N 52°28' E 004°40'0 0.0
2016-Aug-26 08:33N 52°28' E 004°40'0 0.0
2016-Aug-26 07:32N 52°28' E 004°40'0 0.0
2016-Aug-26 06:32N 52°28' E 004°40'0 0.0
2016-Aug-26 04:33N 52°28' E 004°40'0 0.0
2016-Aug-26 03:33N 52°28' E 004°40'0 0.0
2016-Aug-26 02:32N 52°28' E 004°40'0 0.0
2016-Aug-26 01:32N 52°28' E 004°40'0 0.0
2016-Aug-26 00:31N 52°28' E 004°40'0 0.0
2016-Aug-25 23:33N 52°28' E 004°40'0 0.0
2016-Aug-25 22:33N 52°28' E 004°40'0 0.0
2016-Aug-25 21:32N 52°28' E 004°40'0 0.0
2016-Aug-25 20:28N 52°28' E 004°40'0 0.0
2016-Aug-25 19:31N 52°28' E 004°40'0 0.0
2016-Aug-25 18:33N 52°28' E 004°40'0 0.0
2016-Aug-25 17:32N 52°28' E 004°40'0 0.0
2016-Aug-25 16:32N 52°28' E 004°40'0 0.0
2016-Aug-25 15:31N 52°28' E 004°40'0 0.0
2016-Aug-25 14:31N 52°28' E 004°40'0 0.0
2016-Aug-25 13:33N 52°28' E 004°40'0 0.0
2016-Aug-25 12:32N 52°28' E 004°40'0 0.0
2016-Aug-25 11:33N 52°28' E 004°40'3 3.0
2016-Aug-25 10:33N 52°28' E 004°35'9 8.6
2016-Aug-25 09:34N 52°29' E 004°21'1413.9
2016-Aug-25 08:33N 52°27' E 003°58'1313.5
2016-Aug-25 07:33N 52°31' E 003°37'1413.8
2016-Aug-25 06:33N 52°38' E 003°17'2913.4
2016-Aug-25 04:24N 52°51' E 002°35'1213.6
2016-Aug-25 03:30N 52°57' E 002°17'1414.3
2016-Aug-25 02:33N 53°04' E 001°57'1414.5
2016-Aug-25 01:34N 53°09' E 001°35'1614.8
2016-Aug-25 00:30N 53°15' E 001°11'1515.1
2016-Aug-24 23:32N 53°22' E 000°50'1514.6
2016-Aug-24 22:31N 53°28' E 000°27'1313.1
2016-Aug-24 21:33N 53°33' E 000°08'7 7.3
2016-Aug-24 20:33N 53°35' W 000°04'0 0.0
2016-Aug-24 19:33N 53°35' W 000°04'0 0.0
2016-Aug-24 18:33N 53°35' W 000°04'0 0.0
2016-Aug-24 17:34N 53°35' W 000°04'0 0.0
2016-Aug-24 16:33N 53°35' W 000°04'0 0.0
2016-Aug-24 15:33N 53°35' W 000°04'0 0.0
2016-Aug-24 14:33N 53°35' W 000°04'0 0.0
2016-Aug-24 13:33N 53°35' W 000°04'0 0.0
2016-Aug-24 12:33N 53°35' W 000°04'0 0.0
2016-Aug-24 11:33N 53°35' W 000°04'0 0.0
2016-Aug-24 10:33N 53°35' W 000°04'0 0.0
2016-Aug-24 09:33N 53°35' W 000°04'0 0.0
2016-Aug-24 08:33N 53°35' W 000°04'0 0.0
2016-Aug-24 07:33N 53°35' W 000°04'0 0.0
2016-Aug-24 06:33N 53°35' W 000°04'0 0.0
2016-Aug-24 04:33N 53°35' W 000°04'0 0.0
2016-Aug-24 03:33N 53°35' W 000°04'0 0.0
2016-Aug-24 02:33N 53°35' W 000°04'0 0.0
2016-Aug-24 01:33N 53°35' W 000°04'0 0.0
2016-Aug-24 00:33N 53°35' W 000°04'0 0.0
2016-Aug-23 23:33N 53°35' W 000°04'0 0.0
2016-Aug-23 22:34N 53°35' W 000°04'0 0.0
2016-Aug-23 21:33N 53°35' W 000°04'0 0.0
2016-Aug-23 20:33N 53°35' W 000°04'4 3.8
2016-Aug-23 19:33N 53°35' E 000°02'9 8.7
2016-Aug-23 18:33N 53°34' E 000°17'1010.3
2016-Aug-23 17:33N 53°43' E 000°25'1414.2
2016-Aug-23 16:33N 53°57' E 000°33'1413.5
2016-Aug-23 15:33N 54°10' E 000°41'  
2016-Aug-21 03:16N 63°08' E 007°44'1 1.9
2016-Aug-21 02:32N 63°07' E 007°46'4411.0
2016-Aug-20 22:32N 63°31' E 009°08'1312.9
2016-Aug-20 21:34N 63°43' E 009°16'18813.4
2016-Aug-20 07:32N 66°25' E 012°59'1713.2
2016-Aug-20 06:14N 66°42' E 013°09'1014.2
2016-Aug-20 05:34N 66°51' E 013°19'1413.2
2016-Aug-20 04:31N 67°04' E 013°28'1514.4
2016-Aug-20 03:28N 67°19' E 013°27'3214.6
2016-Aug-20 01:18N 67°49' E 013°51'1114.3
2016-Aug-20 00:32N 67°60' E 013°59'42410.9
2016-Aug-18 09:32N 69°03' E 033°04'7 6.9
2016-Aug-18 08:33N 68°56' E 033°02'0 0.0
2016-Aug-18 07:33N 68°56' E 033°02'  
Track history (hours):
 
Tides and Currents Weather Stations Pressure Air Temp Water Temp Dewpoint Dewpoint Depression Visibility Wind Speed Wind Dir Waves Ship Positions

Polfoss

Last reported at 2016-Aug-27 21:33 UTC. Time now 2016-Aug-27 22:20 UTC.
Position N 58°38' E 005°25'.

Length 82 m; draft 6.3 m.

Type: Cargo ship. MMSI: 305081000.

Date/timePositionNaut miles runAvg speedWind from/ knotsBaromVisibWave heightAir tempDewpointWater temp
2016-Aug-27 21:33N 58°38' E 005°25'1614.8
2016-Aug-27 20:30N 58°22' E 005°26'23514.3
2016-Aug-27 04:06N 54°27' E 005°12'814.2
2016-Aug-27 03:32N 54°19' E 005°10'1414.2
2016-Aug-27 02:33N 54°06' E 005°07'1414.4
2016-Aug-27 01:33N 53°52' E 004°60'1514.6
2016-Aug-27 00:34N 53°38' E 004°51'1514.7
2016-Aug-26 23:33N 53°24' E 004°43'1615.7
2016-Aug-26 22:33N 53°10' E 004°33'1615.8
2016-Aug-26 21:33N 52°54' E 004°29'1515.4
2016-Aug-26 20:33N 52°39' E 004°29'1111.4
2016-Aug-26 19:34N 52°28' E 004°35'3 2.7
2016-Aug-26 18:33N 52°28' E 004°40'0 0.0
2016-Aug-26 17:33N 52°28' E 004°40'0 0.0
2016-Aug-26 16:29N 52°28' E 004°40'0 0.0
2016-Aug-26 15:31N 52°28' E 004°40'0 0.0
2016-Aug-26 14:31N 52°28' E 004°40'0 0.0
2016-Aug-26 13:33N 52°28' E 004°40'0 0.0
2016-Aug-26 12:32N 52°28' E 004°40'0 0.0
2016-Aug-26 11:32N 52°28' E 004°40'0 0.0
2016-Aug-26 10:31N 52°28' E 004°40'0 0.0
2016-Aug-26 09:28N 52°28' E 004°40'0 0.0
2016-Aug-26 08:33N 52°28' E 004°40'0 0.0
2016-Aug-26 07:32N 52°28' E 004°40'0 0.0
2016-Aug-26 06:32N 52°28' E 004°40'0 0.0
2016-Aug-26 04:33N 52°28' E 004°40'0 0.0
2016-Aug-26 03:33N 52°28' E 004°40'0 0.0
2016-Aug-26 02:32N 52°28' E 004°40'0 0.0
2016-Aug-26 01:32N 52°28' E 004°40'0 0.0
2016-Aug-26 00:31N 52°28' E 004°40'0 0.0
2016-Aug-25 23:33N 52°28' E 004°40'0 0.0
2016-Aug-25 22:33N 52°28' E 004°40'0 0.0
2016-Aug-25 21:32N 52°28' E 004°40'0 0.0
2016-Aug-25 20:28N 52°28' E 004°40'0 0.0
2016-Aug-25 19:31N 52°28' E 004°40'0 0.0
2016-Aug-25 18:33N 52°28' E 004°40'0 0.0
2016-Aug-25 17:32N 52°28' E 004°40'0 0.0
2016-Aug-25 16:32N 52°28' E 004°40'0 0.0
2016-Aug-25 15:31N 52°28' E 004°40'0 0.0
2016-Aug-25 14:31N 52°28' E 004°40'0 0.0
2016-Aug-25 13:33N 52°28' E 004°40'0 0.0
2016-Aug-25 12:32N 52°28' E 004°40'0 0.0
2016-Aug-25 11:33N 52°28' E 004°40'3 3.0
2016-Aug-25 10:33N 52°28' E 004°35'9 8.6
2016-Aug-25 09:34N 52°29' E 004°21'1413.9
2016-Aug-25 08:33N 52°27' E 003°58'1313.5
2016-Aug-25 07:33N 52°31' E 003°37'1413.8
2016-Aug-25 06:33N 52°38' E 003°17'2913.4
2016-Aug-25 04:24N 52°51' E 002°35'1213.6
2016-Aug-25 03:30N 52°57' E 002°17'1414.3
2016-Aug-25 02:33N 53°04' E 001°57'1414.5
2016-Aug-25 01:34N 53°09' E 001°35'1614.8
2016-Aug-25 00:30N 53°15' E 001°11'1515.1
2016-Aug-24 23:32N 53°22' E 000°50'1514.6
2016-Aug-24 22:31N 53°28' E 000°27'1313.1
2016-Aug-24 21:33N 53°33' E 000°08'7 7.3
2016-Aug-24 20:33N 53°35' W 000°04'0 0.0
2016-Aug-24 19:33N 53°35' W 000°04'0 0.0
2016-Aug-24 18:33N 53°35' W 000°04'0 0.0
2016-Aug-24 17:34N 53°35' W 000°04'0 0.0
2016-Aug-24 16:33N 53°35' W 000°04'0 0.0
2016-Aug-24 15:33N 53°35' W 000°04'0 0.0
2016-Aug-24 14:33N 53°35' W 000°04'0 0.0
2016-Aug-24 13:33N 53°35' W 000°04'0 0.0
2016-Aug-24 12:33N 53°35' W 000°04'0 0.0
2016-Aug-24 11:33N 53°35' W 000°04'0 0.0
2016-Aug-24 10:33N 53°35' W 000°04'0 0.0
2016-Aug-24 09:33N 53°35' W 000°04'0 0.0
2016-Aug-24 08:33N 53°35' W 000°04'0 0.0
2016-Aug-24 07:33N 53°35' W 000°04'0 0.0
2016-Aug-24 06:33N 53°35' W 000°04'0 0.0
2016-Aug-24 04:33N 53°35' W 000°04'0 0.0
2016-Aug-24 03:33N 53°35' W 000°04'0 0.0
2016-Aug-24 02:33N 53°35' W 000°04'0 0.0
2016-Aug-24 01:33N 53°35' W 000°04'0 0.0
2016-Aug-24 00:33N 53°35' W 000°04'0 0.0
2016-Aug-23 23:33N 53°35' W 000°04'0 0.0
2016-Aug-23 22:34N 53°35' W 000°04'0 0.0
2016-Aug-23 21:33N 53°35' W 000°04'0 0.0
2016-Aug-23 20:33N 53°35' W 000°04'4 3.8
2016-Aug-23 19:33N 53°35' E 000°02'9 8.7
2016-Aug-23 18:33N 53°34' E 000°17'1010.3
2016-Aug-23 17:33N 53°43' E 000°25'1414.2
2016-Aug-23 16:33N 53°57' E 000°33'1413.5
2016-Aug-23 15:33N 54°10' E 000°41'  
2016-Aug-21 03:16N 63°08' E 007°44'1 1.9
2016-Aug-21 02:32N 63°07' E 007°46'4411.0
2016-Aug-20 22:32N 63°31' E 009°08'1312.9
2016-Aug-20 21:34N 63°43' E 009°16'18813.4
2016-Aug-20 07:32N 66°25' E 012°59'1713.2
2016-Aug-20 06:14N 66°42' E 013°09'1014.2
2016-Aug-20 05:34N 66°51' E 013°19'1413.2
2016-Aug-20 04:31N 67°04' E 013°28'1514.4
2016-Aug-20 03:28N 67°19' E 013°27'3214.6
2016-Aug-20 01:18N 67°49' E 013°51'1114.3
2016-Aug-20 00:32N 67°60' E 013°59'42410.9
2016-Aug-18 09:32N 69°03' E 033°04'7 6.9
2016-Aug-18 08:33N 68°56' E 033°02'0 0.0
2016-Aug-18 07:33N 68°56' E 033°02'  

Dump ship's entire track history